sensor_id;sensor_type;location;lat;lon;timestamp;pressure;altitude;pressure_sealevel;temperature;humidity
48874;BME280;66155;46.204;5.220;2023-06-10T00:04:17;98251.78;;;21.47;66.22
48874;BME280;66155;46.204;5.220;2023-06-10T00:09:18;98255.72;;;21.41;66.56
48874;BME280;66155;46.204;5.220;2023-06-10T00:14:18;98256.56;;;21.33;67.03
48874;BME280;66155;46.204;5.220;2023-06-10T00:19:19;98245.41;;;21.27;66.98
48874;BME280;66155;46.204;5.220;2023-06-10T00:24:19;98257.22;;;21.30;67.21
48874;BME280;66155;46.204;5.220;2023-06-10T00:29:19;98240.56;;;21.29;67.04
48874;BME280;66155;46.204;5.220;2023-06-10T00:34:20;98251.72;;;21.35;67.38
48874;BME280;66155;46.204;5.220;2023-06-10T00:39:21;98240.78;;;21.36;66.99
48874;BME280;66155;46.204;5.220;2023-06-10T00:44:21;98239.34;;;21.39;67.10
48874;BME280;66155;46.204;5.220;2023-06-10T00:49:21;98229.44;;;21.36;67.38
48874;BME280;66155;46.204;5.220;2023-06-10T00:54:22;98231.16;;;21.32;67.62
48874;BME280;66155;46.204;5.220;2023-06-10T00:59:23;98225.09;;;21.31;67.64
48874;BME280;66155;46.204;5.220;2023-06-10T01:04:23;98225.22;;;21.35;67.58
48874;BME280;66155;46.204;5.220;2023-06-10T01:09:33;98214.50;;;21.31;67.77
48874;BME280;66155;46.204;5.220;2023-06-10T01:14:38;98208.88;;;21.33;67.92
48874;BME280;66155;46.204;5.220;2023-06-10T01:19:53;98217.16;;;21.31;68.78
48874;BME280;66155;46.204;5.220;2023-06-10T01:24:55;98214.16;;;21.20;68.44
48874;BME280;66155;46.204;5.220;2023-06-10T01:30:05;98210.72;;;21.07;68.93
48874;BME280;66155;46.204;5.220;2023-06-10T01:35:08;98209.22;;;20.98;69.27
48874;BME280;66155;46.204;5.220;2023-06-10T01:40:09;98214.28;;;20.91;69.13
48874;BME280;66155;46.204;5.220;2023-06-10T01:45:10;98211.00;;;20.94;68.92
48874;BME280;66155;46.204;5.220;2023-06-10T01:50:10;98208.78;;;20.96;68.69
48874;BME280;66155;46.204;5.220;2023-06-10T01:55:11;98215.53;;;20.93;68.91
48874;BME280;66155;46.204;5.220;2023-06-10T02:00:12;98225.69;;;20.91;69.01
48874;BME280;66155;46.204;5.220;2023-06-10T02:05:13;98228.56;;;20.98;68.55
48874;BME280;66155;46.204;5.220;2023-06-10T02:10:13;98228.38;;;21.03;68.18
48874;BME280;66155;46.204;5.220;2023-06-10T02:15:14;98219.75;;;21.06;68.19
48874;BME280;66155;46.204;5.220;2023-06-10T02:20:14;98224.91;;;21.03;68.49
48874;BME280;66155;46.204;5.220;2023-06-10T02:25:15;98227.69;;;21.06;67.99
48874;BME280;66155;46.204;5.220;2023-06-10T02:30:15;98227.56;;;21.03;68.29
48874;BME280;66155;46.204;5.220;2023-06-10T02:35:17;98229.25;;;21.07;67.94
48874;BME280;66155;46.204;5.220;2023-06-10T02:40:17;98227.56;;;21.03;68.05
48874;BME280;66155;46.204;5.220;2023-06-10T02:45:17;98221.94;;;21.04;68.12
48874;BME280;66155;46.204;5.220;2023-06-10T02:50:18;98230.78;;;21.08;67.86
48874;BME280;66155;46.204;5.220;2023-06-10T02:55:19;98228.00;;;21.05;68.26
48874;BME280;66155;46.204;5.220;2023-06-10T03:00:20;98231.91;;;21.07;67.90
48874;BME280;66155;46.204;5.220;2023-06-10T03:05:21;98229.91;;;21.04;68.04
48874;BME280;66155;46.204;5.220;2023-06-10T03:10:23;98230.66;;;21.05;67.98
48874;BME280;66155;46.204;5.220;2023-06-10T03:15:23;98238.97;;;21.03;68.24
48874;BME280;66155;46.204;5.220;2023-06-10T03:20:24;98235.50;;;21.03;68.23
48874;BME280;66155;46.204;5.220;2023-06-10T03:25:25;98231.00;;;21.03;67.86
48874;BME280;66155;46.204;5.220;2023-06-10T03:30:30;98233.31;;;21.05;67.98
48874;BME280;66155;46.204;5.220;2023-06-10T03:35:30;98232.75;;;20.99;68.59
48874;BME280;66155;46.204;5.220;2023-06-10T03:40:32;98235.91;;;20.93;68.59
48874;BME280;66155;46.204;5.220;2023-06-10T03:45:33;98237.16;;;20.95;68.75
48874;BME280;66155;46.204;5.220;2023-06-10T03:50:34;98245.09;;;20.95;68.59
48874;BME280;66155;46.204;5.220;2023-06-10T03:55:34;98245.41;;;20.94;68.56
48874;BME280;66155;46.204;5.220;2023-06-10T04:00:36;98247.31;;;20.93;68.81
48874;BME280;66155;46.204;5.220;2023-06-10T04:05:41;98253.38;;;20.94;68.60
48874;BME280;66155;46.204;5.220;2023-06-10T04:10:42;98251.94;;;20.96;68.41
48874;BME280;66155;46.204;5.220;2023-06-10T04:15:42;98261.44;;;20.97;68.51
48874;BME280;66155;46.204;5.220;2023-06-10T04:20:42;98255.06;;;20.98;68.25
48874;BME280;66155;46.204;5.220;2023-06-10T04:25:44;98262.19;;;20.98;68.54
48874;BME280;66155;46.204;5.220;2023-06-10T04:30:44;98267.63;;;21.01;68.49
48874;BME280;66155;46.204;5.220;2023-06-10T04:35:46;98263.56;;;21.04;68.18
48874;BME280;66155;46.204;5.220;2023-06-10T04:40:47;98260.47;;;21.02;68.24
48874;BME280;66155;46.204;5.220;2023-06-10T04:45:48;98262.56;;;21.08;68.11
48874;BME280;66155;46.204;5.220;2023-06-10T04:50:48;98264.69;;;21.15;68.30
48874;BME280;66155;46.204;5.220;2023-06-10T04:55:49;98267.13;;;21.20;68.21
48874;BME280;66155;46.204;5.220;2023-06-10T05:00:49;98272.03;;;21.31;67.83
48874;BME280;66155;46.204;5.220;2023-06-10T05:05:50;98270.84;;;21.40;67.51
48874;BME280;66155;46.204;5.220;2023-06-10T05:10:50;98272.50;;;21.45;67.34
48874;BME280;66155;46.204;5.220;2023-06-10T05:15:50;98274.66;;;21.52;67.36
48874;BME280;66155;46.204;5.220;2023-06-10T05:20:51;98272.25;;;21.59;67.12
48874;BME280;66155;46.204;5.220;2023-06-10T05:25:51;98275.44;;;21.64;66.91
48874;BME280;66155;46.204;5.220;2023-06-10T05:30:52;98275.66;;;21.72;66.92
48874;BME280;66155;46.204;5.220;2023-06-10T05:35:52;98270.16;;;21.77;66.87
48874;BME280;66155;46.204;5.220;2023-06-10T05:40:53;98278.66;;;21.82;66.60
48874;BME280;66155;46.204;5.220;2023-06-10T05:45:53;98278.34;;;21.84;66.28
48874;BME280;66155;46.204;5.220;2023-06-10T05:50:54;98290.25;;;21.78;66.16
48874;BME280;66155;46.204;5.220;2023-06-10T05:55:55;98287.72;;;21.69;66.34
48874;BME280;66155;46.204;5.220;2023-06-10T06:00:57;98287.16;;;21.76;65.84
48874;BME280;66155;46.204;5.220;2023-06-10T06:05:58;98283.41;;;21.89;65.83
48874;BME280;66155;46.204;5.220;2023-06-10T06:10:58;98292.91;;;22.02;65.13
48874;BME280;66155;46.204;5.220;2023-06-10T06:15:58;98294.50;;;22.28;64.51
48874;BME280;66155;46.204;5.220;2023-06-10T06:20:59;98290.81;;;22.45;64.10
48874;BME280;66155;46.204;5.220;2023-06-10T06:25:59;98289.47;;;22.64;63.60
48874;BME280;66155;46.204;5.220;2023-06-10T06:31:00;98295.50;;;22.76;63.39
48874;BME280;66155;46.204;5.220;2023-06-10T06:36:00;98281.91;;;22.78;62.75
48874;BME280;66155;46.204;5.220;2023-06-10T06:41:00;98282.16;;;22.61;62.62
48874;BME280;66155;46.204;5.220;2023-06-10T06:46:03;98293.47;;;22.45;62.85
48874;BME280;66155;46.204;5.220;2023-06-10T06:51:03;98294.91;;;22.55;62.88
48874;BME280;66155;46.204;5.220;2023-06-10T06:56:04;98288.34;;;22.52;63.05
48874;BME280;66155;46.204;5.220;2023-06-10T07:01:04;98291.44;;;22.54;63.42
48874;BME280;66155;46.204;5.220;2023-06-10T07:06:05;98293.75;;;22.68;63.09
48874;BME280;66155;46.204;5.220;2023-06-10T07:11:06;98291.53;;;22.70;62.81
48874;BME280;66155;46.204;5.220;2023-06-10T07:16:07;98303.81;;;22.75;62.73
48874;BME280;66155;46.204;5.220;2023-06-10T07:21:07;98311.81;;;22.63;63.00
48874;BME280;66155;46.204;5.220;2023-06-10T07:26:08;98317.38;;;22.86;62.32
48874;BME280;66155;46.204;5.220;2023-06-10T07:31:11;98324.25;;;22.87;62.12
48874;BME280;66155;46.204;5.220;2023-06-10T07:36:12;98327.09;;;22.53;62.92
48874;BME280;66155;46.204;5.220;2023-06-10T07:41:12;98326.16;;;22.74;62.53
48874;BME280;66155;46.204;5.220;2023-06-10T07:46:12;98322.22;;;23.08;61.64
48874;BME280;66155;46.204;5.220;2023-06-10T07:51:13;98333.44;;;22.77;62.15
48874;BME280;66155;46.204;5.220;2023-06-10T07:56:13;98326.78;;;23.08;61.18
48874;BME280;66155;46.204;5.220;2023-06-10T08:01:14;98329.81;;;23.22;61.00
48874;BME280;66155;46.204;5.220;2023-06-10T08:06:14;98320.28;;;23.65;60.11
48874;BME280;66155;46.204;5.220;2023-06-10T08:11:17;98324.75;;;24.09;59.06
48874;BME280;66155;46.204;5.220;2023-06-10T08:16:17;98322.03;;;24.41;58.19
48874;BME280;66155;46.204;5.220;2023-06-10T08:21:17;98320.38;;;24.68;57.56
48874;BME280;66155;46.204;5.220;2023-06-10T08:26:18;98323.28;;;24.98;56.39
48874;BME280;66155;46.204;5.220;2023-06-10T08:31:18;98317.72;;;24.68;56.53
48874;BME280;66155;46.204;5.220;2023-06-10T08:36:19;98323.94;;;24.76;56.07
48874;BME280;66155;46.204;5.220;2023-06-10T08:41:21;98319.66;;;24.91;54.64
48874;BME280;66155;46.204;5.220;2023-06-10T08:46:21;98322.47;;;24.59;54.78
48874;BME280;66155;46.204;5.220;2023-06-10T08:51:23;98305.94;;;24.89;54.10
48874;BME280;66155;46.204;5.220;2023-06-10T08:56:26;98318.41;;;24.49;55.81
48874;BME280;66155;46.204;5.220;2023-06-10T09:01:28;98322.00;;;24.21;56.29
48874;BME280;66155;46.204;5.220;2023-06-10T09:06:31;98325.69;;;24.17;56.56
48874;BME280;66155;46.204;5.220;2023-06-10T09:11:33;98317.28;;;24.31;56.14
48874;BME280;66155;46.204;5.220;2023-06-10T09:16:34;98312.34;;;24.48;55.89
48874;BME280;66155;46.204;5.220;2023-06-10T09:21:34;98321.34;;;24.60;55.07
48874;BME280;66155;46.204;5.220;2023-06-10T09:26:36;98319.75;;;24.94;54.66
48874;BME280;66155;46.204;5.220;2023-06-10T09:31:36;98323.13;;;25.30;53.95
48874;BME280;66155;46.204;5.220;2023-06-10T09:36:38;98323.56;;;25.78;52.52
48874;BME280;66155;46.204;5.220;2023-06-10T09:41:40;98318.28;;;25.82;52.58
48874;BME280;66155;46.204;5.220;2023-06-10T09:46:41;98318.94;;;25.75;52.54
48874;BME280;66155;46.204;5.220;2023-06-10T09:51:52;98317.09;;;25.79;52.05
48874;BME280;66155;46.204;5.220;2023-06-10T09:56:53;98311.09;;;26.09;52.22
48874;BME280;66155;46.204;5.220;2023-06-10T10:01:56;98306.19;;;25.88;51.51
48874;BME280;66155;46.204;5.220;2023-06-10T10:06:57;98306.63;;;25.90;52.07
48874;BME280;66155;46.204;5.220;2023-06-10T10:12:01;98303.75;;;25.79;52.40
48874;BME280;66155;46.204;5.220;2023-06-10T10:17:07;98293.41;;;25.74;52.52
48874;BME280;66155;46.204;5.220;2023-06-10T10:22:12;98297.53;;;25.72;52.69
48874;BME280;66155;46.204;5.220;2023-06-10T10:27:22;98295.34;;;25.54;52.53
48874;BME280;66155;46.204;5.220;2023-06-10T10:32:32;98296.78;;;25.48;52.37
48874;BME280;66155;46.204;5.220;2023-06-10T10:37:35;98298.31;;;25.49;52.82
48874;BME280;66155;46.204;5.220;2023-06-10T10:42:37;98303.53;;;25.65;52.64
48874;BME280;66155;46.204;5.220;2023-06-10T10:47:38;98295.09;;;25.86;52.23
48874;BME280;66155;46.204;5.220;2023-06-10T10:53:15;98294.31;;;26.09;50.94
48874;BME280;66155;46.204;5.220;2023-06-10T10:58:24;98293.56;;;26.35;50.46
48874;BME280;66155;46.204;5.220;2023-06-10T11:03:27;98298.63;;;26.44;50.16
48874;BME280;66155;46.204;5.220;2023-06-10T11:13:28;98296.50;;;26.87;50.46
48874;BME280;66155;46.204;5.220;2023-06-10T11:18:29;98302.81;;;27.05;49.90
48874;BME280;66155;46.204;5.220;2023-06-10T11:23:38;98300.88;;;27.02;49.51
48874;BME280;66155;46.204;5.220;2023-06-10T11:29:00;98293.16;;;27.27;48.42
48874;BME280;66155;46.204;5.220;2023-06-10T11:34:04;98292.44;;;27.34;48.32
48874;BME280;66155;46.204;5.220;2023-06-10T11:39:06;98302.19;;;27.57;48.11
48874;BME280;66155;46.204;5.220;2023-06-10T11:44:09;98293.66;;;27.88;47.56
48874;BME280;66155;46.204;5.220;2023-06-10T11:49:11;98286.66;;;27.77;47.24
48874;BME280;66155;46.204;5.220;2023-06-10T11:54:11;98281.13;;;27.52;47.32
48874;BME280;66155;46.204;5.220;2023-06-10T11:59:12;98277.00;;;27.20;47.53
48874;BME280;66155;46.204;5.220;2023-06-10T12:04:14;98261.44;;;27.29;46.63
48874;BME280;66155;46.204;5.220;2023-06-10T12:09:29;98258.47;;;27.38;46.41
48874;BME280;66155;46.204;5.220;2023-06-10T12:14:54;98253.72;;;27.24;44.76
48874;BME280;66155;46.204;5.220;2023-06-10T12:19:56;98246.66;;;27.43;46.10
48874;BME280;66155;46.204;5.220;2023-06-10T12:24:59;98247.41;;;27.02;46.19
48874;BME280;66155;46.204;5.220;2023-06-10T12:30:01;98239.63;;;26.86;45.25
48874;BME280;66155;46.204;5.220;2023-06-10T12:35:05;98234.47;;;27.08;45.46
48874;BME280;66155;46.204;5.220;2023-06-10T12:40:06;98231.66;;;26.93;45.50
48874;BME280;66155;46.204;5.220;2023-06-10T12:45:08;98230.81;;;26.86;44.97
48874;BME280;66155;46.204;5.220;2023-06-10T12:50:10;98227.69;;;27.18;44.37
48874;BME280;66155;46.204;5.220;2023-06-10T12:55:12;98233.69;;;27.45;44.03
48874;BME280;66155;46.204;5.220;2023-06-10T13:00:12;98215.88;;;27.67;44.02
48874;BME280;66155;46.204;5.220;2023-06-10T13:05:14;98219.81;;;27.84;42.43
48874;BME280;66155;46.204;5.220;2023-06-10T13:10:15;98219.22;;;28.12;42.58
48874;BME280;66155;46.204;5.220;2023-06-10T13:15:16;98222.75;;;28.23;42.48
48874;BME280;66155;46.204;5.220;2023-06-10T13:20:17;98219.78;;;28.47;42.72
48874;BME280;66155;46.204;5.220;2023-06-10T13:25:18;98214.81;;;28.52;42.12
48874;BME280;66155;46.204;5.220;2023-06-10T13:30:19;98217.06;;;28.36;42.78
48874;BME280;66155;46.204;5.220;2023-06-10T13:35:19;98209.34;;;28.27;42.71
48874;BME280;66155;46.204;5.220;2023-06-10T13:40:20;98219.09;;;27.91;43.15
48874;BME280;66155;46.204;5.220;2023-06-10T13:45:20;98220.88;;;27.72;43.82
48874;BME280;66155;46.204;5.220;2023-06-10T13:50:20;98214.66;;;27.57;43.78
48874;BME280;66155;46.204;5.220;2023-06-10T13:55:21;98217.28;;;27.50;43.56
48874;BME280;66155;46.204;5.220;2023-06-10T14:00:21;98208.91;;;27.55;43.59
48874;BME280;66155;46.204;5.220;2023-06-10T14:05:22;98214.34;;;27.66;43.73
48874;BME280;66155;46.204;5.220;2023-06-10T14:10:22;98217.38;;;27.61;44.17
48874;BME280;66155;46.204;5.220;2023-06-10T14:15:23;98230.25;;;27.48;45.07
48874;BME280;66155;46.204;5.220;2023-06-10T14:20:23;98228.69;;;27.40;45.26
48874;BME280;66155;46.204;5.220;2023-06-10T14:25:25;98239.31;;;27.33;46.17
48874;BME280;66155;46.204;5.220;2023-06-10T14:30:26;98243.34;;;27.16;46.90
48874;BME280;66155;46.204;5.220;2023-06-10T14:35:26;98241.19;;;26.91;48.07
48874;BME280;66155;46.204;5.220;2023-06-10T14:40:26;98244.16;;;25.95;51.14
48874;BME280;66155;46.204;5.220;2023-06-10T14:45:29;98250.09;;;24.96;55.77
48874;BME280;66155;46.204;5.220;2023-06-10T14:50:30;98237.66;;;24.61;57.31
48874;BME280;66155;46.204;5.220;2023-06-10T14:55:30;98241.41;;;24.40;57.68
48874;BME280;66155;46.204;5.220;2023-06-10T15:00:30;98248.97;;;24.38;57.60
48874;BME280;66155;46.204;5.220;2023-06-10T15:05:31;98241.66;;;24.35;57.27
48874;BME280;66155;46.204;5.220;2023-06-10T15:10:33;98234.50;;;24.55;57.32
48874;BME280;66155;46.204;5.220;2023-06-10T15:15:33;98224.41;;;24.64;56.59
48874;BME280;66155;46.204;5.220;2023-06-10T15:20:34;98218.84;;;24.93;56.25
48874;BME280;66155;46.204;5.220;2023-06-10T15:25:34;98218.78;;;25.32;55.75
48874;BME280;66155;46.204;5.220;2023-06-10T15:30:35;98227.13;;;25.53;55.29
48874;BME280;66155;46.204;5.220;2023-06-10T15:35:37;98230.63;;;25.57;55.34
48874;BME280;66155;46.204;5.220;2023-06-10T15:40:41;98224.16;;;25.58;55.71
48874;BME280;66155;46.204;5.220;2023-06-10T15:45:41;98231.94;;;25.67;54.75
48874;BME280;66155;46.204;5.220;2023-06-10T15:50:42;98221.50;;;25.85;54.56
48874;BME280;66155;46.204;5.220;2023-06-10T15:55:42;98219.31;;;26.17;53.83
48874;BME280;66155;46.204;5.220;2023-06-10T16:00:43;98217.28;;;26.71;52.77
48874;BME280;66155;46.204;5.220;2023-06-10T16:05:43;98205.88;;;27.60;51.28
48874;BME280;66155;46.204;5.220;2023-06-10T16:10:44;98191.41;;;28.42;49.28
48874;BME280;66155;46.204;5.220;2023-06-10T16:15:44;98185.47;;;29.31;47.88
48874;BME280;66155;46.204;5.220;2023-06-10T16:20:44;98175.28;;;32.24;42.30
48874;BME280;66155;46.204;5.220;2023-06-10T16:25:45;98170.03;;;35.90;36.17
48874;BME280;66155;46.204;5.220;2023-06-10T16:30:45;98177.28;;;34.69;38.12
48874;BME280;66155;46.204;5.220;2023-06-10T16:35:49;98161.59;;;37.52;33.36
48874;BME280;66155;46.204;5.220;2023-06-10T16:40:49;98163.72;;;38.54;32.06
48874;BME280;66155;46.204;5.220;2023-06-10T16:45:50;98171.22;;;35.60;35.86
48874;BME280;66155;46.204;5.220;2023-06-10T16:50:50;98180.28;;;33.78;36.85
48874;BME280;66155;46.204;5.220;2023-06-10T16:55:51;98185.53;;;32.06;39.03
48874;BME280;66155;46.204;5.220;2023-06-10T17:00:51;98180.81;;;31.79;38.89
48874;BME280;66155;46.204;5.220;2023-06-10T17:05:52;98184.13;;;31.56;39.26
48874;BME280;66155;46.204;5.220;2023-06-10T17:10:52;98189.19;;;30.94;40.73
48874;BME280;66155;46.204;5.220;2023-06-10T17:15:53;98187.69;;;30.86;41.24
48874;BME280;66155;46.204;5.220;2023-06-10T17:20:53;98190.88;;;30.70;41.76
48874;BME280;66155;46.204;5.220;2023-06-10T17:25:53;98185.00;;;30.89;41.43
48874;BME280;66155;46.204;5.220;2023-06-10T17:30:54;98190.06;;;30.73;41.64
48874;BME280;66155;46.204;5.220;2023-06-10T17:35:54;98186.25;;;30.70;42.24
48874;BME280;66155;46.204;5.220;2023-06-10T17:40:55;98193.09;;;30.82;42.53
48874;BME280;66155;46.204;5.220;2023-06-10T17:45:56;98197.84;;;30.60;41.68
48874;BME280;66155;46.204;5.220;2023-06-10T17:50:57;98199.34;;;30.65;41.81
48874;BME280;66155;46.204;5.220;2023-06-10T17:55:58;98197.97;;;31.02;40.67
48874;BME280;66155;46.204;5.220;2023-06-10T18:00:58;98199.22;;;31.39;40.12
48874;BME280;66155;46.204;5.220;2023-06-10T18:05:59;98194.28;;;32.13;39.01
48874;BME280;66155;46.204;5.220;2023-06-10T18:11:00;98202.94;;;32.90;37.69
48874;BME280;66155;46.204;5.220;2023-06-10T18:16:02;98206.44;;;33.85;35.50
48874;BME280;66155;46.204;5.220;2023-06-10T18:21:02;98215.09;;;34.36;34.86
48874;BME280;66155;46.204;5.220;2023-06-10T18:26:02;98220.38;;;34.60;34.59
48874;BME280;66155;46.204;5.220;2023-06-10T18:31:03;98223.91;;;34.77;34.59
48874;BME280;66155;46.204;5.220;2023-06-10T18:36:04;98228.31;;;33.70;35.47
48874;BME280;66155;46.204;5.220;2023-06-10T18:41:04;98237.28;;;32.24;37.19
48874;BME280;66155;46.204;5.220;2023-06-10T18:46:05;98240.31;;;30.87;38.95
48874;BME280;66155;46.204;5.220;2023-06-10T18:51:05;98242.22;;;29.66;40.61
48874;BME280;66155;46.204;5.220;2023-06-10T18:56:06;98245.56;;;28.73;42.10
48874;BME280;66155;46.204;5.220;2023-06-10T19:01:06;98250.72;;;28.33;42.71
48874;BME280;66155;46.204;5.220;2023-06-10T19:06:07;98256.59;;;27.91;43.64
48874;BME280;66155;46.204;5.220;2023-06-10T19:11:07;98269.09;;;27.31;45.43
48874;BME280;66155;46.204;5.220;2023-06-10T19:16:08;98273.13;;;26.80;45.70
48874;BME280;66155;46.204;5.220;2023-06-10T19:21:08;98280.47;;;26.26;47.03
48874;BME280;66155;46.204;5.220;2023-06-10T19:26:10;98274.59;;;25.90;48.21
48874;BME280;66155;46.204;5.220;2023-06-10T19:31:10;98278.28;;;25.59;49.28
48874;BME280;66155;46.204;5.220;2023-06-10T19:36:11;98276.44;;;25.20;49.89
48874;BME280;66155;46.204;5.220;2023-06-10T19:41:11;98281.31;;;24.95;51.05
48874;BME280;66155;46.204;5.220;2023-06-10T19:46:11;98284.34;;;24.74;51.57
48874;BME280;66155;46.204;5.220;2023-06-10T19:51:15;98288.19;;;24.57;52.29
48874;BME280;66155;46.204;5.220;2023-06-10T19:56:17;98302.78;;;24.47;52.33
48874;BME280;66155;46.204;5.220;2023-06-10T20:01:22;98300.75;;;24.41;52.40
48874;BME280;66155;46.204;5.220;2023-06-10T20:06:22;98313.97;;;24.37;52.93
48874;BME280;66155;46.204;5.220;2023-06-10T20:11:23;98323.78;;;24.33;53.50
48874;BME280;66155;46.204;5.220;2023-06-10T20:16:25;98322.59;;;24.31;53.86
48874;BME280;66155;46.204;5.220;2023-06-10T20:21:25;98326.28;;;24.26;54.21
48874;BME280;66155;46.204;5.220;2023-06-10T20:26:26;98328.09;;;24.22;54.37
48874;BME280;66155;46.204;5.220;2023-06-10T20:31:26;98335.28;;;24.21;54.44
48874;BME280;66155;46.204;5.220;2023-06-10T20:36:26;98334.44;;;24.17;55.04
48874;BME280;66155;46.204;5.220;2023-06-10T20:41:27;98336.34;;;24.17;54.93
48874;BME280;66155;46.204;5.220;2023-06-10T20:46:28;98342.69;;;24.28;54.41
48874;BME280;66155;46.204;5.220;2023-06-10T20:51:29;98346.91;;;24.29;54.78
48874;BME280;66155;46.204;5.220;2023-06-10T20:56:29;98345.34;;;24.28;54.67
48874;BME280;66155;46.204;5.220;2023-06-10T21:01:32;98353.31;;;24.28;54.81
48874;BME280;66155;46.204;5.220;2023-06-10T21:06:33;98350.31;;;24.29;54.80
48874;BME280;66155;46.204;5.220;2023-06-10T21:11:33;98360.03;;;24.38;54.63
48874;BME280;66155;46.204;5.220;2023-06-10T21:16:33;98361.63;;;24.42;54.67
48874;BME280;66155;46.204;5.220;2023-06-10T21:21:34;98351.69;;;24.39;54.87
48874;BME280;66155;46.204;5.220;2023-06-10T21:26:34;98357.38;;;24.38;54.94
48874;BME280;66155;46.204;5.220;2023-06-10T21:31:35;98346.38;;;24.39;54.94
48874;BME280;66155;46.204;5.220;2023-06-10T21:36:35;98354.69;;;24.38;55.36
48874;BME280;66155;46.204;5.220;2023-06-10T21:41:36;98347.25;;;24.27;55.60
48874;BME280;66155;46.204;5.220;2023-06-10T21:46:36;98351.72;;;24.23;55.56
48874;BME280;66155;46.204;5.220;2023-06-10T21:51:37;98343.38;;;24.25;55.79
48874;BME280;66155;46.204;5.220;2023-06-10T21:56:37;98342.94;;;24.23;55.83
48874;BME280;66155;46.204;5.220;2023-06-10T22:01:38;98344.06;;;24.22;56.22
48874;BME280;66155;46.204;5.220;2023-06-10T22:06:38;98351.56;;;24.16;56.27
48874;BME280;66155;46.204;5.220;2023-06-10T22:11:39;98364.59;;;23.89;58.17
48874;BME280;66155;46.204;5.220;2023-06-10T22:16:39;98364.59;;;23.45;59.60
48874;BME280;66155;46.204;5.220;2023-06-10T22:21:40;98365.69;;;23.16;60.63
48874;BME280;66155;46.204;5.220;2023-06-10T22:26:41;98366.56;;;23.20;59.83
48874;BME280;66155;46.204;5.220;2023-06-10T22:31:41;98365.22;;;23.26;59.75
48874;BME280;66155;46.204;5.220;2023-06-10T22:36:41;98362.00;;;23.33;59.51
48874;BME280;66155;46.204;5.220;2023-06-10T22:41:42;98360.75;;;23.30;59.64
48874;BME280;66155;46.204;5.220;2023-06-10T22:46:43;98357.47;;;23.21;59.73
48874;BME280;66155;46.204;5.220;2023-06-10T22:51:43;98359.31;;;23.05;60.22
48874;BME280;66155;46.204;5.220;2023-06-10T22:56:44;98356.56;;;22.89;60.57
48874;BME280;66155;46.204;5.220;2023-06-10T23:01:45;98363.09;;;22.79;60.60
48874;BME280;66155;46.204;5.220;2023-06-10T23:06:45;98363.81;;;22.64;61.40
48874;BME280;66155;46.204;5.220;2023-06-10T23:11:46;98366.34;;;22.60;61.63
48874;BME280;66155;46.204;5.220;2023-06-10T23:16:46;98367.88;;;22.61;61.57
48874;BME280;66155;46.204;5.220;2023-06-10T23:21:47;98371.56;;;22.56;61.79
48874;BME280;66155;46.204;5.220;2023-06-10T23:26:54;98363.50;;;22.53;61.96
48874;BME280;66155;46.204;5.220;2023-06-10T23:31:55;98372.22;;;22.53;61.79
48874;BME280;66155;46.204;5.220;2023-06-10T23:36:56;98374.88;;;22.53;62.12
48874;BME280;66155;46.204;5.220;2023-06-10T23:41:56;98371.47;;;22.53;61.93
48874;BME280;66155;46.204;5.220;2023-06-10T23:46:57;98370.44;;;22.45;62.16
48874;BME280;66155;46.204;5.220;2023-06-10T23:51:57;98366.25;;;22.32;62.63
48874;BME280;66155;46.204;5.220;2023-06-10T23:56:57;98368.00;;;22.28;62.63
